DABB/AAE METAR and TAF weather

Enter ICAO airport designator
Station Type Date Time Source
DABB METAR 2022/01/19 19:00 UTC NOAA

DABB 191900Z VRB02KT CAVOK 09/07 Q1028


Station Type Date Time Source
DABB Decoded METAR 2022/01/19 19:00 UTC NOAA

Annaba, Algeria (DABB) 36-50N 007-49E 4M
Jan 19, 2022 - 02:00 PM EST / 2022.01.19 1900 UTC
Wind: Variable at 2 MPH (2 KT):0
Visibility: greater than 7 mile(s):0
Temperature: 48 F (9 C)
Dew Point: 44 F (7 C)
Relative Humidity: 87%
Pressure (altimeter): 30.36 in. Hg (1028 hPa)
ob: DABB 191900Z VRB02KT CAVOK 09/07 Q1028
cycle: 19

Station Type Date Time Source
DABB TAF 2022/01/19 18:40 UTC NOAA

TAF DABB 191700Z 1918/2018 02006KT 9999 FEW023
BECMG 1919/1921 20006KT PROB30
TEMPO 2000/2006 VRB02KT 2000 BR BKN010

Example: see airport list